Time;durP1;ratioP1;P1;durP2;ratioP2;P2;SDS_P1;SDS_P2;PMS_P1;PMS_P2;Temp;Humidity;BMP_temperature;BMP_pressure;BME280_temperature;BME280_humidity;BME280_pressure;Samples;Min_cycle;Max_cycle;Signal;HPM_P1;HPM_P2
2022/04/05 00:02:17;;;;;;;11.93;4.30;;;11.00;99.90;;;;;;5087407;28;20821;-67
2022/04/05 00:04:43;;;;;;;13.10;4.83;;;11.00;99.90;;;;;;5065513;28;20412;-67
2022/04/05 00:07:09;;;;;;;10.48;3.90;;;10.90;99.90;;;;;;5065893;28;20509;-67
2022/04/05 00:09:35;;;;;;;8.75;3.78;;;10.90;99.90;;;;;;5068472;28;20485;-67
2022/04/05 00:12:01;;;;;;;11.23;3.30;;;10.90;99.90;;;;;;5053787;28;20406;-69
2022/04/05 00:14:27;;;;;;;9.40;3.28;;;11.00;99.90;;;;;;5083801;28;20763;-66
2022/04/05 00:16:53;;;;;;;8.93;2.90;;;11.00;99.90;;;;;;5083456;28;20480;-67
2022/04/05 00:19:22;;;;;;;7.57;2.40;;;11.00;99.90;;;;;;5066937;28;20441;-67
2022/04/05 00:21:49;;;;;;;6.10;2.40;;;11.00;99.90;;;;;;5083711;28;20500;-66
2022/04/05 00:24:16;;;;;;;7.55;2.05;;;11.00;99.90;;;;;;5084128;28;20414;-65
2022/04/05 00:26:42;;;;;;;6.80;1.90;;;11.00;99.90;;;;;;5070016;28;20428;-67
2022/04/05 00:29:08;;;;;;;9.32;1.80;;;11.00;99.90;;;;;;5051421;28;21165;-67
2022/04/05 00:31:34;;;;;;;5.00;1.67;;;11.00;99.90;;;;;;5067629;28;20490;-66
2022/04/05 00:34:00;;;;;;;6.97;1.63;;;11.10;99.90;;;;;;5065548;28;20489;-66
2022/04/05 00:36:25;;;;;;;7.43;1.43;;;11.00;99.90;;;;;;5084567;28;20504;-67
2022/04/05 00:38:51;;;;;;;9.13;1.80;;;11.00;99.90;;;;;;5068239;28;20422;-67
2022/04/05 00:41:17;;;;;;;11.23;1.70;;;11.00;99.90;;;;;;5087187;28;20422;-66
2022/04/05 00:43:42;;;;;;;6.50;1.73;;;11.00;99.90;;;;;;5066299;28;20480;-66
2022/04/05 00:46:08;;;;;;;10.07;1.90;;;10.90;99.90;;;;;;5067906;28;20808;-67
2022/04/05 00:48:57;;;;;;;6.40;1.55;;;10.90;99.90;;;;;;5084227;28;20506;-66
2022/04/05 00:51:24;;;;;;;6.80;1.48;;;10.90;99.90;;;;;;5086580;28;21104;-67
2022/04/05 00:54:04;;;;;;;8.27;1.80;;;10.80;99.90;;;;;;5083739;28;20416;-67
2022/04/05 00:56:33;;;;;;;10.07;2.30;;;10.80;99.90;;;;;;5067550;28;20417;-65
2022/04/05 00:59:00;;;;;;;10.05;2.30;;;10.80;99.90;;;;;;5085659;28;20414;-66
2022/04/05 01:01:27;;;;;;;9.75;2.25;;;10.90;99.90;;;;;;5068500;28;20416;-68
2022/04/05 01:03:53;;;;;;;10.20;2.25;;;10.90;99.90;;;;;;5049149;28;20764;-69
2022/04/05 01:06:23;;;;;;;7.00;2.00;;;10.80;99.90;;;;;;5049656;28;20417;-69
2022/04/05 01:08:50;;;;;;;9.07;2.28;;;10.80;99.90;;;;;;5082220;28;20897;-69
2022/04/05 01:11:16;;;;;;;10.63;2.20;;;10.80;99.90;;;;;;5084820;28;20417;-70
2022/04/05 01:13:42;;;;;;;11.57;2.30;;;10.80;99.90;;;;;;5083007;28;20410;-69
2022/04/05 01:16:10;;;;;;;10.50;2.30;;;10.80;99.90;;;;;;5085888;28;20393;-68
2022/04/05 01:18:35;;;;;;;13.23;2.55;;;10.80;99.90;;;;;;5077364;28;20501;-67
2022/04/05 01:21:02;;;;;;;9.43;2.47;;;10.80;99.90;;;;;;5086372;28;20504;-68
2022/04/05 01:23:28;;;;;;;13.37;2.53;;;10.80;99.90;;;;;;5085757;28;20410;-68
2022/04/05 01:25:56;;;;;;;;;;;10.80;99.90;;;;;;5083325;28;20472;-68
2022/04/05 01:28:22;;;;;;;;;;;10.70;99.90;;;;;;5066769;28;19930;-66
2022/04/05 01:30:48;;;;;;;;;;;10.70;99.90;;;;;;5086619;28;19923;-67
2022/04/05 01:33:14;;;;;;;11.43;3.00;;;10.70;99.90;;;;;;5084609;28;20416;-67
2022/04/05 01:35:40;;;;;;;10.90;3.13;;;10.70;99.90;;;;;;5085747;28;20845;-67
2022/04/05 01:38:10;;;;;;;12.45;3.17;;;10.70;99.90;;;;;;5082535;28;20421;-67
2022/04/05 01:40:36;;;;;;;11.95;3.40;;;10.70;99.90;;;;;;5085691;28;20431;-67
2022/04/05 01:43:02;;;;;;;11.13;3.40;;;10.70;99.90;;;;;;5081823;28;20475;-67
2022/04/05 01:45:28;;;;;;;10.90;2.78;;;10.70;99.90;;;;;;5085558;28;20405;-67
2022/04/05 01:47:54;;;;;;;9.40;3.00;;;10.70;99.90;;;;;;5086691;28;20466;-67
2022/04/05 01:50:20;;;;;;;13.73;3.50;;;10.70;99.90;;;;;;5082468;28;20910;-68
2022/04/05 01:52:45;;;;;;;15.93;3.80;;;10.70;99.90;;;;;;5085465;28;20405;-67
2022/04/05 01:55:11;;;;;;;15.17;3.90;;;10.70;99.90;;;;;;5083465;28;20448;-68
2022/04/05 01:57:37;;;;;;;11.38;3.97;;;10.70;99.90;;;;;;5083429;28;20415;-68
2022/04/05 02:00:14;;;;;;;9.60;3.90;;;10.70;99.90;;;;;;5084580;28;20471;-68
2022/04/05 02:02:41;;;;;;;14.32;4.00;;;10.60;99.90;;;;;;5082637;28;20422;-68
2022/04/05 02:05:07;;;;;;;13.50;4.40;;;10.60;99.90;;;;;;5061984;28;20425;-69
2022/04/05 02:07:33;;;;;;;16.15;4.13;;;10.60;99.90;;;;;;5051461;28;20197;-69
2022/04/05 02:09:59;;;;;;;12.45;4.13;;;10.30;99.90;;;;;;5066748;28;20554;-69
2022/04/05 02:12:25;;;;;;;11.85;4.03;;;9.90;99.90;;;;;;5066253;28;20227;-69
2022/04/05 02:15:08;;;;;;;12.93;5.13;;;9.70;99.90;;;;;;5052937;28;20779;-69
2022/04/05 02:17:42;;;;;;;14.57;4.50;;;10.00;99.90;;;;;;5086430;28;20189;-68
2022/04/05 02:20:09;;;;;;;14.75;5.20;;;9.70;99.90;;;;;;5056072;28;20917;-67
2022/04/05 02:22:36;;;;;;;15.25;5.78;;;9.90;99.90;;;;;;5070601;28;20408;-66
2022/04/05 02:25:08;;;;;;;11.68;5.22;;;10.10;99.90;;;;;;5066957;28;20431;-67
2022/04/05 02:27:41;;;;;;;11.60;5.10;;;10.20;99.90;;;;;;5049083;28;20411;-67
2022/04/05 02:30:10;;;;;;;11.57;5.20;;;10.20;99.90;;;;;;5066001;28;20411;-67
2022/04/05 02:32:37;;;;;;;16.85;5.20;;;10.20;99.90;;;;;;5064096;28;20441;-67
2022/04/05 02:35:05;;;;;;;12.98;4.57;;;10.20;99.90;;;;;;5064851;28;20411;-67
2022/04/05 02:37:31;;;;;;;13.63;4.80;;;10.20;99.90;;;;;;5063948;28;20415;-66
2022/04/05 02:43:44;;;;;;;13.45;4.30;;;10.20;99.90;;;;;;4895821;29;20438;-68
2022/04/05 02:46:11;;;;;;;13.25;4.28;;;10.20;99.90;;;;;;5007993;28;20411;-68
2022/04/05 02:48:43;;;;;;;14.07;3.80;;;10.20;99.90;;;;;;5009592;28;20447;-67
2022/04/05 02:51:14;;;;;;;11.02;4.00;;;10.20;99.90;;;;;;5009816;28;20414;-67
2022/04/05 02:53:41;;;;;;;11.18;3.20;;;10.20;99.90;;;;;;4990279;28;20414;-67
2022/04/05 02:56:07;;;;;;;12.50;3.60;;;10.20;99.90;;;;;;5026160;28;20406;-68
2022/04/05 02:58:35;;;;;;;8.85;3.25;;;10.20;99.90;;;;;;5008559;28;20511;-66
2022/04/05 03:01:02;;;;;;;;;;;10.20;99.90;;;;;;5010864;28;20431;-66
2022/04/05 03:03:27;;;;;;;;;;;10.20;99.90;;;;;;5006933;28;19916;-68
2022/04/05 03:05:53;;;;;;;;;;;10.20;99.90;;;;;;5009074;28;19909;-67
2022/04/05 03:08:22;;;;;;;;;;;10.20;99.90;;;;;;5010486;28;19970;-67
2022/04/05 03:10:49;;;;;;;;;;;10.20;99.90;;;;;;5011725;28;19960;-67
2022/04/05 03:13:16;;;;;;;;;;;10.20;99.90;;;;;;5009606;28;20441;-66
2022/04/05 03:15:43;;;;;;;;;;;10.20;99.90;;;;;;5011566;28;20081;-66
2022/04/05 03:18:10;;;;;;;;;;;10.20;99.90;;;;;;5010278;28;19909;-67
2022/04/05 03:20:38;;;;;;;;;;;10.20;99.90;;;;;;5030322;28;20361;-67
2022/04/05 03:23:04;;;;;;;;;;;10.30;99.90;;;;;;5066970;28;19915;-68
2022/04/05 03:25:30;;;;;;;;;;;10.30;99.90;;;;;;5076620;28;19924;-67
2022/04/05 03:28:01;;;;;;;;;;;10.30;99.90;;;;;;5069342;28;20612;-68
2022/04/05 03:30:27;;;;;;;;;;;10.30;99.90;;;;;;5070857;28;20264;-68
2022/04/05 03:32:54;;;;;;;;;;;10.30;99.90;;;;;;5069614;28;19919;-68
2022/04/05 03:35:20;;;;;;;;;;;10.30;99.90;;;;;;5056020;28;19912;-67
2022/04/05 03:37:46;;;;;;;;;;;10.20;99.90;;;;;;5084192;28;21381;-67
2022/04/05 03:40:12;;;;;;;;;;;10.30;99.90;;;;;;5071451;28;20242;-67
2022/04/05 03:42:39;;;;;;;;;;;10.20;99.90;;;;;;5067753;28;20007;-67
2022/04/05 03:45:06;;;;;;;;;;;10.20;99.90;;;;;;5089641;28;19912;-67
2022/04/05 03:47:32;;;;;;;;;;;10.20;99.90;;;;;;5054807;28;19985;-68
2022/04/05 03:50:00;;;;;;;;;;;10.30;99.90;;;;;;5069940;28;19916;-67
2022/04/05 03:52:26;;;;;;;;;;;10.30;99.90;;;;;;5067166;28;19942;-66
2022/04/05 03:54:52;;;;;;;;;;;10.30;99.90;;;;;;5069380;28;19957;-67
2022/04/05 03:57:21;;;;;;;;;;;10.20;99.90;;;;;;5069823;28;19908;-66
2022/04/05 03:59:49;;;;;;;;;;;10.20;99.90;;;;;;5069823;28;19912;-67
2022/04/05 04:02:15;;;;;;;;;;;10.30;99.90;;;;;;5087435;28;19914;-66
2022/04/05 04:04:42;;;;;;;;;;;10.30;99.90;;;;;;5070732;28;20253;-67
2022/04/05 04:07:08;;;;;;;;;;;10.20;99.90;;;;;;5086378;28;20388;-67
2022/04/05 04:09:34;;;;;;;;;;;10.30;99.90;;;;;;5070836;28;20371;-67
2022/04/05 04:12:00;;;;;;;;;;;10.20;99.90;;;;;;5069623;28;19908;-67
2022/04/05 04:14:28;;;;;;;;;;;10.20;99.90;;;;;;5071555;28;19916;-67
2022/04/05 04:16:55;;;;;;;;;;;10.20;99.90;;;;;;5068962;28;19920;-66
2022/04/05 04:19:21;;;;;;;;;;;10.20;99.90;;;;;;5085926;28;19908;-68
2022/04/05 04:21:47;;;;;;;;;;;10.20;99.90;;;;;;5049313;28;19912;-66
2022/04/05 04:24:12;;;;;;;;;;;10.20;99.90;;;;;;5068928;28;19934;-67
2022/04/05 04:26:38;;;;;;;;;;;10.20;99.90;;;;;;5064242;28;19962;-67
2022/04/05 04:29:04;;;;;;;;;;;10.20;99.90;;;;;;5062049;28;19916;-67
2022/04/05 04:31:31;;;;;;;;;;;10.20;99.90;;;;;;5065129;28;19912;-67
2022/04/05 04:33:57;;;;;;;;;;;10.30;99.90;;;;;;5077730;28;19916;-69
2022/04/05 04:36:23;;;;;;;;;;;10.30;99.90;;;;;;5061235;28;19916;-69
2022/04/05 04:38:49;;;;;;;;;;;10.30;99.90;;;;;;5062903;28;19912;-69
2022/04/05 04:41:14;;;;;;;;;;;10.40;99.90;;;;;;5063833;28;20426;-69
2022/04/05 04:43:40;;;;;;;;;;;10.40;99.90;;;;;;5060796;28;19913;-71
2022/04/05 04:46:05;;;;;;;;;;;10.40;99.90;;;;;;5064291;28;19913;-69
2022/04/05 04:48:31;;;;;;;;;;;10.40;99.90;;;;;;5058387;28;19962;-68
2022/04/05 04:50:57;;;;;;;;;;;10.50;99.90;;;;;;5057955;28;19967;-70
2022/04/05 04:53:22;;;;;;;;;;;10.50;99.90;;;;;;5059359;28;20010;-68
2022/04/05 04:55:48;;;;;;;;;;;10.50;99.90;;;;;;5064856;28;19908;-68
2022/04/05 04:58:13;;;;;;;;;;;10.50;99.90;;;;;;5065337;28;20403;-69
2022/04/05 05:00:39;;;;;;;;;;;10.50;99.90;;;;;;5046816;28;19931;-68
2022/04/05 05:03:04;;;;;;;;;;;10.50;99.90;;;;;;5062523;28;20003;-69
2022/04/05 05:05:30;;;;;;;;;;;10.60;99.90;;;;;;5061324;28;19912;-68
2022/04/05 05:07:56;;;;;;;;;;;10.60;99.90;;;;;;5066566;28;19919;-68
2022/04/05 05:10:21;;;;;;;;;;;10.60;99.90;;;;;;5065472;28;19961;-70
2022/04/05 05:12:47;;;;;;;;;;;10.60;99.90;;;;;;5064412;28;20351;-69
2022/04/05 05:15:15;;;;;;;;;;;10.60;99.90;;;;;;5064338;28;20379;-71
2022/04/05 05:17:41;;;;;;;;;;;10.60;99.90;;;;;;5060934;28;19912;-68
2022/04/05 05:20:07;;;;;;;;;;;10.60;99.90;;;;;;5063428;28;20384;-68
2022/04/05 05:22:32;;;;;;;;;;;10.60;99.90;;;;;;5064445;28;20293;-69
2022/04/05 05:24:58;;;;;;;;;;;10.60;99.90;;;;;;5059223;28;19920;-69
2022/04/05 05:27:24;;;;;;;;;;;10.70;99.90;;;;;;5046693;28;19998;-68
2022/04/05 05:29:49;;;;;;;;;;;10.70;99.90;;;;;;5049689;28;20320;-69
2022/04/05 05:32:15;;;;;;;;;;;10.70;99.90;;;;;;5045250;28;19912;-69
2022/04/05 05:34:41;;;;;;;;;;;10.70;99.90;;;;;;5045464;28;19913;-67
2022/04/05 05:37:06;;;;;;;;;;;10.70;99.90;;;;;;5047299;28;19908;-68
2022/04/05 05:39:32;;;;;;;;;;;10.80;99.90;;;;;;5043693;28;19920;-68
2022/04/05 05:41:58;;;;;;;;;;;10.80;99.90;;;;;;5051702;28;19914;-69
2022/04/05 05:44:24;;;;;;;;;;;10.80;99.90;;;;;;5050935;28;19908;-68
2022/04/05 05:46:50;;;;;;;;;;;10.80;99.90;;;;;;5045324;28;19913;-67
2022/04/05 05:49:16;;;;;;;;;;;10.80;99.90;;;;;;5042000;28;19923;-69
2022/04/05 05:51:41;;;;;;;;;;;10.90;99.90;;;;;;5038489;28;19909;-69
2022/04/05 05:54:07;;;;;;;;;;;10.90;99.90;;;;;;5055217;28;19913;-68
2022/04/05 05:56:33;;;;;;;;;;;10.90;99.90;;;;;;5043830;28;19916;-69
2022/04/05 05:58:58;;;;;;;;;;;10.90;99.90;;;;;;5052105;28;19913;-68
2022/04/05 06:01:24;;;;;;;;;;;11.00;99.90;;;;;;5042195;28;19916;-68
2022/04/05 06:03:50;;;;;;;;;;;11.00;99.90;;;;;;5056073;28;19909;-66
2022/04/05 06:06:16;;;;;;;;;;;11.00;99.90;;;;;;5050523;28;19958;-68
2022/04/05 06:08:41;;;;;;;;;;;11.00;99.90;;;;;;5051024;28;19925;-68
2022/04/05 06:11:07;;;;;;;;;;;11.00;99.90;;;;;;5041744;28;19935;-67
2022/04/05 06:13:33;;;;;;;;;;;11.00;99.90;;;;;;5050600;28;19942;-67
2022/04/05 06:15:59;;;;;;;;;;;11.10;99.90;;;;;;5048497;28;19916;-68
2022/04/05 06:18:24;;;;;;;;;;;11.10;99.90;;;;;;5049830;28;19909;-67
2022/04/05 06:20:50;;;;;;;;;;;11.10;99.90;;;;;;5041476;28;19913;-68
2022/04/05 06:23:15;;;;;;;;;;;11.10;99.90;;;;;;5041803;28;19971;-68
2022/04/05 06:25:41;;;;;;;;;;;11.20;99.90;;;;;;5068072;28;19920;-68
2022/04/05 06:28:07;;;;;;;;;;;11.20;99.90;;;;;;5085171;28;19912;-67
2022/04/05 06:30:35;;;;;;;;;;;11.20;99.90;;;;;;5086811;28;19927;-68
2022/04/05 06:33:20;;;;;;;;;;;11.20;99.90;;;;;;5084433;28;19908;-67
2022/04/05 06:35:47;;;;;;;;;;;11.20;99.90;;;;;;5070772;28;19926;-67
2022/04/05 06:38:12;;;;;;;;;;;11.30;99.90;;;;;;5088685;28;19908;-68
2022/04/05 06:40:38;;;;;;;;;;;11.30;99.90;;;;;;5090232;28;19919;-68
2022/04/05 06:43:04;;;;;;;;;;;11.30;99.90;;;;;;5090729;28;19908;-68
2022/04/05 06:45:30;;;;;;;;;;;11.30;99.90;;;;;;5087719;28;20301;-69
2022/04/05 06:47:55;;;;;;;;;;;11.30;99.90;;;;;;5086272;28;20016;-66
2022/04/05 06:50:24;;;;;;;;;;;11.30;99.90;;;;;;5082414;28;19912;-66
2022/04/05 06:52:50;;;;;;;;;;;11.40;99.90;;;;;;5070261;28;19912;-66
2022/04/05 06:55:16;;;;;;;;;;;11.40;99.90;;;;;;5087533;28;20551;-67
2022/04/05 06:57:42;;;;;;;;;;;11.40;99.90;;;;;;5089240;28;19919;-68
2022/04/05 07:00:09;;;;;;;;;;;11.40;99.90;;;;;;5087398;28;19969;-67
2022/04/05 07:02:35;;;;;;;;;;;11.50;99.90;;;;;;5090529;28;20349;-67
2022/04/05 07:05:00;;;;;;;;;;;11.50;99.90;;;;;;5088075;28;19912;-67
2022/04/05 07:07:26;;;;;;;;;;;11.50;99.90;;;;;;5084990;28;19957;-68
2022/04/05 07:09:51;;;;;;;;;;;11.60;99.90;;;;;;5086952;28;19994;-68
2022/04/05 07:12:17;;;;;;;;;;;11.60;99.90;;;;;;5068772;28;19987;-66
2022/04/05 07:14:42;;;;;;;;;;;11.70;99.90;;;;;;5086442;28;19912;-69
2022/04/05 07:17:08;;;;;;;;;;;11.70;99.90;;;;;;5088011;28;19942;-65
2022/04/05 07:19:34;;;;;;;;;;;11.70;99.90;;;;;;5088620;28;19915;-68
2022/04/05 07:22:00;;;;;;;;;;;11.80;99.90;;;;;;5053052;28;19950;-68
2022/04/05 07:24:26;;;;;;;;;;;11.80;99.90;;;;;;5071684;28;19936;-70
2022/04/05 07:26:52;;;;;;;;;;;11.90;99.90;;;;;;5070260;28;20337;-69
2022/04/05 07:29:17;;;;;;;;;;;11.90;99.90;;;;;;5089013;28;19930;-67
2022/04/05 07:31:43;;;;;;;;;;;12.00;99.90;;;;;;5085325;28;19956;-67
2022/04/05 07:34:08;;;;;;;;;;;12.00;99.90;;;;;;5085034;28;19908;-66
2022/04/05 07:36:34;;;;;;;;;;;12.10;99.90;;;;;;5068720;28;19982;-68
2022/04/05 07:38:59;;;;;;;;;;;12.10;99.90;;;;;;5070372;28;19915;-67
2022/04/05 07:41:25;;;;;;;;;;;12.20;99.90;;;;;;5087239;28;19934;-66
2022/04/05 07:43:51;;;;;;;;;;;12.20;99.90;;;;;;5090275;28;19931;-66
2022/04/05 07:46:16;;;;;;;;;;;12.20;99.90;;;;;;5069936;28;20377;-69
2022/04/05 07:48:42;;;;;;;;;;;12.20;99.90;;;;;;5087342;28;20455;-66
2022/04/05 07:51:08;;;;;;;;;;;12.30;99.90;;;;;;5085564;28;19919;-69
2022/04/05 07:53:33;;;;;;;;;;;12.30;99.90;;;;;;5085342;28;19908;-67
2022/04/05 07:55:59;;;;;;;;;;;12.20;99.90;;;;;;5087277;28;19966;-68
2022/04/05 07:58:25;;;;;;;;;;;12.10;99.90;;;;;;5088784;28;20411;-69
2022/04/05 08:00:51;;;;;;;;;;;12.10;99.90;;;;;;5067951;28;20365;-68
2022/04/05 08:03:17;;;;;;;;;;;12.00;99.90;;;;;;5083750;28;19916;-68
2022/04/05 08:05:43;;;;;;;;;;;12.00;99.90;;;;;;5067286;28;19916;-67
2022/04/05 08:08:09;;;;;;;;;;;12.00;99.90;;;;;;5085770;28;19919;-67
2022/04/05 08:10:35;;;;;;;;;;;12.00;99.90;;;;;;5085242;28;19919;-67
2022/04/05 08:13:00;;;;;;;;;;;12.00;99.90;;;;;;5089068;28;19912;-68
2022/04/05 08:15:26;;;;;;;;;;;12.00;99.90;;;;;;5084480;28;19938;-68
2022/04/05 08:17:52;;;;;;;;;;;12.10;99.90;;;;;;5088088;28;19980;-69
2022/04/05 08:20:18;;;;;;;;;;;12.20;99.90;;;;;;5067046;28;20376;-68
2022/04/05 08:22:44;;;;;;;;;;;12.20;99.90;;;;;;5088907;28;19908;-68
2022/04/05 08:25:10;;;;;;;;;;;12.30;99.90;;;;;;5069550;28;19969;-69
2022/04/05 08:27:37;;;;;;;;;;;12.40;99.90;;;;;;5089155;28;19915;-68
2022/04/05 08:30:04;;;;;;;;;;;12.40;99.90;;;;;;5066135;28;20296;-70
2022/04/05 08:32:29;;;;;;;;;;;12.50;99.90;;;;;;5070067;28;19965;-68
2022/04/05 08:34:55;;;;;;;;;;;12.50;99.90;;;;;;5069662;28;19908;-69
2022/04/05 08:37:22;;;;;;;;;;;12.60;99.90;;;;;;5071957;28;19908;-67
2022/04/05 08:39:48;;;;;;;;;;;12.60;99.90;;;;;;5087599;28;20011;-70
2022/04/05 08:42:14;;;;;;;;;;;12.50;99.90;;;;;;5087699;28;19912;-67
2022/04/05 08:44:42;;;;;;;;;;;12.60;99.90;;;;;;5083421;28;19915;-67
2022/04/05 08:47:09;;;;;;;;;;;12.50;99.90;;;;;;5087824;28;19923;-68
2022/04/05 08:49:35;;;;;;;;;;;12.50;99.90;;;;;;5086177;28;20380;-70
2022/04/05 08:52:01;;;;;;;;;;;12.50;99.90;;;;;;5081235;28;19912;-69
2022/04/05 08:54:26;;;;;;;;;;;12.50;99.90;;;;;;5079303;28;19957;-68
2022/04/05 08:56:52;;;;;;;;;;;12.50;99.90;;;;;;5082760;28;19923;-68
2022/04/05 08:59:17;;;;;;;;;;;12.50;99.90;;;;;;5070131;28;19912;-68
2022/04/05 09:01:43;;;;;;;;;;;12.60;99.90;;;;;;5086474;28;19991;-69
2022/04/05 09:04:10;;;;;;;;;;;12.60;99.90;;;;;;5067732;28;19988;-69
2022/04/05 09:06:36;;;;;;;;;;;12.60;99.90;;;;;;5086438;28;19912;-69
2022/04/05 09:09:17;;;;;;;;;;;12.50;99.90;;;;;;5087879;28;19919;-69
2022/04/05 09:11:44;;;;;;;;;;;12.50;99.90;;;;;;5082799;28;20444;-69
2022/04/05 09:14:10;;;;;;;;;;;12.50;99.90;;;;;;5085816;28;19911;-69
2022/04/05 09:16:36;;;;;;;;;;;12.50;99.90;;;;;;5068123;28;20360;-68
2022/04/05 09:19:14;;;;;;;;;;;12.60;99.90;;;;;;5087904;28;19904;-68
2022/04/05 09:21:49;;;;;;;;;;;12.70;99.90;;;;;;5067489;28;19947;-67
2022/04/05 09:24:14;;;;;;;;;;;12.70;99.90;;;;;;5084885;28;20417;-66
2022/04/05 09:26:41;;;;;;;;;;;12.70;99.90;;;;;;5067317;28;20003;-68
2022/04/05 09:29:07;;;;;;;;;;;12.70;99.90;;;;;;5090019;28;20426;-69
2022/04/05 09:31:41;;;;;;;;;;;12.70;99.90;;;;;;5090264;28;19958;-69
2022/04/05 09:34:08;;;;;;;;;;;12.70;99.90;;;;;;5090341;28;20341;-67
2022/04/05 09:36:35;;;;;;;;;;;12.60;99.90;;;;;;5069671;28;20427;-67
2022/04/05 09:39:16;;;;;;;;;;;12.70;99.90;;;;;;5091947;28;19920;-67
2022/04/05 09:41:42;;;;;;;;;;;12.60;99.90;;;;;;5070445;28;19942;-68
2022/04/05 09:44:07;;;;;;;;;;;12.70;99.90;;;;;;5091156;28;19908;-68
2022/04/05 09:46:35;;;;;;;;;;;12.70;99.90;;;;;;5087501;28;19916;-68
2022/04/05 09:49:11;;;;;;;;;;;12.70;99.90;;;;;;5087249;28;19965;-70
2022/04/05 09:51:44;;;;;;;;;;;12.70;99.90;;;;;;5066687;28;19908;-70
2022/04/05 09:54:19;;;;;;;;;;;12.70;99.90;;;;;;5071486;28;20161;-66
2022/04/05 09:56:44;;;;;;;;;;;12.70;99.90;;;;;;5088695;28;19912;-66
2022/04/05 09:59:18;;;;;;;;;;;12.70;99.90;;;;;;5073891;28;19914;-66
2022/04/05 10:01:45;;;;;;;;;;;12.70;99.90;;;;;;5089999;28;19912;-68
2022/04/05 10:04:12;;;;;;;;;;;12.70;99.90;;;;;;5089975;28;19912;-66
2022/04/05 10:06:39;;;;;;;;;;;12.70;99.90;;;;;;5070483;28;19939;-67
2022/04/05 10:09:06;;;;;;;;;;;12.70;99.90;;;;;;5072808;28;19916;-67
2022/04/05 10:11:33;;;;;;;;;;;12.60;99.90;;;;;;5085897;28;19950;-65
2022/04/05 10:13:59;;;;;;;;;;;12.70;99.90;;;;;;5073080;28;19916;-66
2022/04/05 10:16:26;;;;;;;;;;;12.80;99.90;;;;;;5091714;28;19970;-66
2022/04/05 10:18:58;;;;;;;;;;;12.80;99.90;;;;;;5090599;28;19908;-68
2022/04/05 10:21:27;;;;;;;;;;;12.90;99.90;;;;;;5087829;28;19995;-68
2022/04/05 10:23:55;;;;;;;;;;;12.90;99.90;;;;;;5052928;28;19918;-66
2022/04/05 10:26:26;;;;;;;;;;;13.00;99.90;;;;;;5071538;28;19916;-67
2022/04/05 10:28:52;;;;;;;;;;;13.10;99.90;;;;;;5066605;28;19919;-68
2022/04/05 10:31:23;;;;;;;;;;;13.30;99.90;;;;;;5092100;28;19916;-66
2022/04/05 10:34:09;;;;;;;;;;;13.30;99.90;;;;;;5072857;28;19915;-68
2022/04/05 10:36:35;;;;;;;;;;;13.40;99.90;;;;;;5070887;28;19936;-66
2022/04/05 10:39:17;;;;;;;;;;;13.40;99.90;;;;;;5090402;28;19908;-66
2022/04/05 10:41:43;;;;;;;;;;;13.40;99.90;;;;;;5090388;28;19920;-66
2022/04/05 10:44:24;;;;;;;;;;;13.40;99.90;;;;;;5084409;28;19938;-69
2022/04/05 10:46:51;;;;;;;;;;;13.40;99.90;;;;;;5088919;28;19916;-66
2022/04/05 10:49:36;;;;;;;;;;;13.40;99.90;;;;;;5086482;28;19916;-66
2022/04/05 10:52:08;;;;;;;;;;;13.30;99.90;;;;;;5089683;28;19923;-68
2022/04/05 10:54:36;;;;;;;;;;;13.40;99.90;;;;;;5090083;28;21433;-69
2022/04/05 10:57:21;;;;;;;;;;;13.50;99.90;;;;;;5086703;28;19916;-65
2022/04/05 10:59:53;;;;;;;;;;;13.50;99.90;;;;;;5068984;28;19911;-66
2022/04/05 11:02:35;;;;;;;;;;;13.50;99.90;;;;;;5088319;28;19912;-66
2022/04/05 11:05:19;;;;;;;;;;;13.60;99.90;;;;;;5090357;28;19930;-66
2022/04/05 11:07:51;;;;;;;;;;;13.50;99.90;;;;;;5087613;28;20273;-68
2022/04/05 11:10:21;;;;;;;;;;;13.40;99.90;;;;;;5090402;28;20458;-66
2022/04/05 11:12:46;;;;;;;;;;;13.30;99.90;;;;;;5069957;28;19922;-67
2022/04/05 11:15:15;;;;;;;;;;;13.30;99.90;;;;;;5087247;28;19990;-66
2022/04/05 11:17:41;;;;;;;;;;;13.30;99.90;;;;;;5086698;28;19916;-68
2022/04/05 11:20:07;;;;;;;;;;;13.30;99.90;;;;;;5090394;28;19996;-67
2022/04/05 11:22:39;;;;;;;;;;;13.30;99.90;;;;;;5088900;28;19952;-68
2022/04/05 11:25:06;;;;;;;;;;;13.30;99.90;;;;;;5088797;28;19920;-69
2022/04/05 11:27:45;;;;;;;;;;;13.40;99.90;;;;;;5053207;28;19958;-67
2022/04/05 11:30:23;;;;;;;;;;;13.50;99.90;;;;;;5086420;28;19926;-66
2022/04/05 11:33:14;;;;;;;;;;;13.60;99.90;;;;;;5087790;28;19961;-66
2022/04/05 11:35:41;;;;;;;;;;;13.70;99.90;;;;;;5088860;28;19908;-66
2022/04/05 11:38:26;;;;;;;;;;;13.80;99.90;;;;;;5086323;28;19919;-68
2022/04/05 11:40:54;;;;;;;;;;;13.90;99.90;;;;;;5088383;28;19953;-67
2022/04/05 11:43:24;;;;;;;;;;;14.10;99.90;;;;;;5070532;28;20027;-67
2022/04/05 11:46:00;;;;;;;;;;;14.30;99.90;;;;;;5089876;28;19912;-68
2022/04/05 11:48:26;;;;;;;;;;;14.60;99.90;;;;;;5086838;28;19920;-67
2022/04/05 11:50:52;;;;;;;;;;;14.70;99.90;;;;;;5087445;28;19915;-68
2022/04/05 11:53:22;;;;;;;;;;;14.70;99.90;;;;;;5085950;28;19915;-67
2022/04/05 11:56:06;;;;;;;;;;;14.60;99.90;;;;;;5089850;28;19977;-67
2022/04/05 11:58:34;;;;;;;;;;;14.40;99.90;;;;;;5087997;28;19951;-65
2022/04/05 12:01:01;;;;;;;;;;;14.30;99.90;;;;;;5086580;28;19918;-66
2022/04/05 12:03:27;;;;;;;;;;;14.20;99.90;;;;;;5086671;28;19994;-66
2022/04/05 12:05:53;;;;;;;;;;;14.20;99.90;;;;;;5087009;28;20006;-65
2022/04/05 12:08:18;;;;;;;;;;;14.30;99.90;;;;;;5068350;28;19927;-64
2022/04/05 12:10:44;;;;;;;;;;;14.40;99.90;;;;;;5070465;28;19915;-69
2022/04/05 12:13:10;;;;;;;;;;;14.40;99.90;;;;;;5087346;28;20281;-66
2022/04/05 12:15:36;;;;;;;;;;;14.40;99.90;;;;;;5088084;28;19919;-68
2022/04/05 12:18:18;;;;;;;;;;;14.40;99.90;;;;;;5086417;28;19908;-68
2022/04/05 12:21:01;;;;;;;;;;;14.40;99.90;;;;;;5086304;28;19958;-68
2022/04/05 12:23:30;;;;;;;;;;;14.30;99.90;;;;;;5085667;28;20712;-68
2022/04/05 12:26:11;;;;;;;;;;;14.30;99.90;;;;;;5069984;28;19920;-68
2022/04/05 12:28:41;;;;;;;;;;;14.20;99.90;;;;;;5069651;28;20405;-69
2022/04/05 12:31:08;;;;;;;;;;;14.30;99.90;;;;;;5089137;28;19912;-69
2022/04/05 12:33:34;;;;;;;;;;;14.30;99.90;;;;;;5087601;28;20380;-68
2022/04/05 12:36:00;;;;;;;;;;;14.30;99.90;;;;;;5083521;28;20003;-67
2022/04/05 12:38:26;;;;;;;;;;;14.30;99.90;;;;;;5086460;28;20006;-70
2022/04/05 12:40:52;;;;;;;;;;;14.30;99.90;;;;;;5087226;28;19912;-68
2022/04/05 12:43:19;;;;;;;;;;;14.20;99.90;;;;;;5068487;28;19912;-67
2022/04/05 12:45:45;;;;;;;;;;;14.20;99.90;;;;;;5081142;28;19938;-68
2022/04/05 12:48:12;;;;;;;;;;;14.20;99.90;;;;;;5083128;28;19912;-69
2022/04/05 12:50:45;;;;;;;;;;;14.20;99.90;;;;;;5087016;28;19908;-67
2022/04/05 12:53:11;;;;;;;;;;;14.20;99.90;;;;;;5069997;28;21564;-68
2022/04/05 12:55:36;;;;;;;;;;;14.20;99.90;;;;;;5088282;28;19918;-67
2022/04/05 12:58:02;;;;;;;;;;;14.20;99.90;;;;;;5070172;28;19938;-67
2022/04/05 13:00:28;;;;;;;;;;;14.20;99.90;;;;;;5090041;28;20024;-67
2022/04/05 13:03:00;;;;;;;;;;;14.10;99.90;;;;;;5069528;28;19912;-68
2022/04/05 13:08:12;;;;;;;;;;;13.60;99.90;;;;;;5086783;28;19918;-68
2022/04/05 13:10:38;;;;;;;;;;;13.80;99.90;;;;;;5085762;28;20340;-68
2022/04/05 13:13:23;;;;;;;;;;;13.90;99.90;;;;;;5080780;28;20002;-68
2022/04/05 13:16:01;;;;;;;;;;;13.90;99.90;;;;;;5086736;28;20269;-68
2022/04/05 13:18:40;;;;;;;;;;;13.80;99.90;;;;;;5083396;28;20060;-68
2022/04/05 13:21:16;;;;;;;;;;;13.80;99.90;;;;;;5085856;28;19908;-67
2022/04/05 13:23:42;;;;;;;;;;;13.80;99.90;;;;;;5088953;28;19912;-68
2022/04/05 13:26:19;;;;;;;;;;;13.90;99.90;;;;;;5067237;28;19920;-68
2022/04/05 13:28:44;;;;;;;;;;;13.50;99.90;;;;;;5087623;28;20477;-68
2022/04/05 13:31:11;;;;;;;;;;;13.20;99.90;;;;;;5086338;28;19999;-70
2022/04/05 13:33:37;;;;;;;;;;;12.90;99.90;;;;;;5070642;28;20345;-69
2022/04/05 13:36:03;;;;;;;;;;;12.80;99.90;;;;;;5069441;28;19919;-69
2022/04/05 13:38:29;;;;;;;;;;;12.70;99.90;;;;;;5086401;28;20307;-69
2022/04/05 13:40:54;;;;;;;;;;;12.60;99.90;;;;;;5069698;28;19918;-68
2022/04/05 13:43:20;;;;;;;;;;;12.60;99.90;;;;;;5087871;28;19981;-67
2022/04/05 13:45:46;;;;;;;;;;;12.50;99.90;;;;;;5067542;28;19912;-68
2022/04/05 13:48:12;;;;;;;;;;;12.40;99.90;;;;;;5054932;28;20285;-70
2022/04/05 13:50:37;;;;;;;;;;;12.90;99.90;;;;;;5087297;28;19961;-68
2022/04/05 13:53:03;;;;;;;;;;;12.60;99.90;;;;;;5069788;28;19908;-68
2022/04/05 13:55:28;;;;;;;;;;;12.40;99.90;;;;;;5069657;28;19912;-68
2022/04/05 13:57:54;;;;;;;;;;;12.30;99.90;;;;;;5071192;28;19943;-68
2022/04/05 14:00:19;;;;;;;;;;;12.10;99.90;;;;;;5086504;28;19919;-68
2022/04/05 14:02:45;;;;;;;29.83;6.38;;;12.10;99.90;;;;;;5088262;28;20403;-68
2022/04/05 14:05:11;;;;;;;23.45;6.20;;;12.00;99.90;;;;;;5065133;28;20224;-68